Terminal Aerodrome Forecast
Issued by NWS Shreveport, LA

Home | Current Version | Previous Version | Text Only | Print | Product List | Glossary On
Versions: 1 2 3 4 5 6 7 8 9 10 11 12 13 14 15 16 17 18 19 20
000
FTUS44 KSHV 310500
TAFELD
TAF
KELD 310525Z 3106/0106 18006KT P6SM SCT008 BKN015
      TEMPO 3106/3110 5SM BR BKN008
     FM311000 18006KT 5SM BR BKN008 BKN012
      TEMPO 3110/3113 1SM BR BKN003
     FM311500 19006KT P6SM BKN015
     FM311800 17010KT P6SM VCSH BKN035 BKN250
     FM010000 15007KT P6SM BKN250=

USA.gov is the U.S. government's official web portal to all federal, state and local government web resources and services.